createdAt,value
2017-09-22T04:08:16.809Z,2.47
2017-09-22T05:25:27.260Z,1.77
2017-09-22T05:33:11.632Z,2.30
2017-09-22T05:35:48.197Z,1.67
2017-09-22T05:40:53.961Z,2.15
2017-09-22T05:54:35.906Z,1.62
2017-09-22T05:57:02.416Z,1.40
2017-09-22T05:59:28.778Z,1.00
2017-09-22T06:01:55.609Z,1.40
2017-09-22T06:04:21.987Z,1.42
2017-09-22T06:06:48.402Z,1.10
2017-09-22T06:09:14.758Z,1.10
2017-09-22T06:11:41.113Z,1.00
2017-09-22T06:14:07.522Z,1.00
2017-09-22T06:16:33.866Z,1.20
2017-09-22T06:19:00.314Z,0.90
2017-09-22T06:21:27.002Z,1.30
2017-09-22T06:24:04.233Z,1.45
2017-09-22T06:26:33.172Z,0.93
2017-09-22T06:29:01.299Z,1.00
2017-09-22T06:31:27.928Z,1.40
2017-09-22T06:40:37.981Z,1.40
2017-09-22T06:43:04.595Z,1.42
2017-09-22T06:45:30.963Z,1.90
2017-09-22T06:47:57.290Z,1.42
2017-09-22T06:50:23.635Z,1.52
2017-09-22T06:52:50.159Z,1.08
2017-09-22T06:55:16.371Z,1.17
2017-09-22T06:57:42.581Z,1.42
2017-09-22T07:00:08.853Z,0.95
2017-09-22T07:02:34.999Z,1.00
2017-09-22T07:05:01.315Z,0.80
2017-09-22T07:07:27.740Z,1.15
2017-09-22T07:09:53.970Z,1.42
2017-09-22T07:12:20.652Z,1.00
2017-09-22T07:14:47.157Z,1.20
2017-09-22T07:17:13.379Z,1.30
2017-09-22T07:19:39.704Z,1.20
2017-09-22T07:22:05.955Z,1.27
2017-09-22T07:24:32.471Z,1.00
2017-09-22T07:26:58.933Z,0.93
2017-09-22T07:29:25.234Z,1.05
2017-09-22T07:31:51.584Z,0.90
2017-09-22T07:34:18.212Z,1.12
2017-09-22T07:36:44.439Z,0.90
2017-09-22T07:39:11.523Z,1.10
2017-09-22T07:41:37.725Z,1.05
2017-09-22T07:44:04.576Z,0.90
2017-09-22T07:46:31.216Z,1.12
2017-09-22T07:48:57.513Z,1.42
2017-09-22T07:51:23.822Z,1.08
2017-09-22T07:53:50.272Z,1.00
2017-09-22T07:56:16.514Z,1.40
2017-09-22T07:58:42.846Z,0.93
2017-09-22T08:01:09.423Z,0.80
2017-09-22T08:03:35.663Z,1.30
2017-09-22T08:06:01.853Z,1.73
2017-09-22T08:08:28.510Z,0.95
2017-09-22T08:10:54.813Z,0.90
2017-09-22T08:13:21.274Z,1.50
2017-09-22T08:15:47.480Z,0.80
2017-09-22T08:18:13.793Z,1.23
2017-09-22T08:20:40.380Z,0.88
2017-09-22T08:23:06.700Z,1.00
2017-09-22T08:25:33.411Z,0.70
2017-09-22T08:27:59.686Z,1.35
2017-09-22T08:30:26.122Z,0.80
2017-09-22T08:32:53.059Z,1.00
2017-09-22T08:35:19.374Z,0.77
2017-09-22T08:37:45.734Z,0.70
2017-09-22T08:40:12.078Z,0.95
2017-09-22T08:42:38.488Z,1.17
2017-09-22T08:45:04.641Z,0.70
2017-09-22T08:47:30.854Z,0.85
2017-09-22T08:49:57.071Z,0.80
2017-09-22T08:52:23.308Z,1.25
2017-09-22T08:54:49.630Z,1.00
2017-09-22T08:57:15.860Z,0.93
2017-09-22T08:59:42.175Z,1.35
2017-09-22T09:02:08.524Z,0.70
2017-09-22T09:04:35.151Z,1.00
2017-09-22T09:07:01.520Z,1.00
2017-09-22T09:09:27.837Z,0.90
2017-09-22T09:11:54.167Z,0.90
2017-09-22T09:14:20.709Z,1.10
2017-09-22T09:16:47.023Z,1.00
2017-09-22T09:19:13.769Z,1.05
2017-09-22T09:21:40.112Z,1.30
2017-09-22T09:24:06.339Z,0.85
2017-09-22T09:26:32.629Z,1.00
2017-09-22T09:28:59.120Z,0.80
2017-09-22T09:31:25.641Z,1.10
2017-09-22T09:33:51.978Z,1.00
2017-09-22T09:36:18.201Z,0.80
2017-09-22T09:38:44.528Z,1.02
2017-09-22T09:41:10.768Z,1.10
2017-09-22T09:43:36.969Z,0.90
2017-09-22T09:46:03.335Z,1.60
2017-09-22T09:48:29.670Z,0.90
2017-09-22T09:50:56.202Z,0.80
2017-09-22T09:53:22.418Z,0.73
2017-09-22T09:55:48.748Z,0.80
2017-09-22T09:58:15.010Z,1.05
2017-09-22T10:00:41.328Z,1.10
2017-09-22T10:03:07.549Z,0.85
2017-09-22T10:05:33.778Z,0.88
2017-09-22T10:08:00.523Z,1.10
2017-09-22T10:10:26.832Z,0.93
2017-09-22T10:12:53.091Z,0.95
2017-09-22T10:15:19.409Z,1.17
2017-09-22T10:17:45.784Z,0.75
2017-09-22T10:20:12.071Z,1.00
2017-09-22T10:22:38.343Z,1.00
2017-09-22T10:25:04.528Z,1.02
2017-09-22T10:27:30.975Z,0.70
2017-09-22T10:29:57.130Z,0.80
2017-09-22T10:32:23.393Z,0.90
2017-09-22T10:34:49.971Z,1.00
2017-09-22T10:37:16.618Z,0.90
2017-09-22T10:39:43.062Z,0.70
2017-09-22T10:42:09.431Z,0.88
2017-09-22T10:44:36.026Z,0.90
2017-09-22T10:47:02.394Z,1.00
2017-09-22T10:49:29.011Z,1.05
2017-09-22T10:51:55.424Z,0.90
2017-09-22T10:54:21.741Z,1.00
2017-09-22T10:56:47.966Z,0.98
2017-09-22T10:59:14.138Z,1.05
2017-09-22T11:01:40.407Z,1.27
2017-09-22T11:04:06.740Z,0.90
2017-09-22T11:06:32.969Z,0.98
2017-09-22T11:08:59.153Z,0.88
2017-09-22T11:11:25.660Z,1.00
2017-09-22T11:13:52.228Z,1.42
2017-09-22T11:16:18.551Z,0.80
2017-09-22T11:18:44.899Z,1.05
2017-09-22T11:21:11.188Z,1.12
2017-09-22T11:23:37.529Z,1.35
2017-09-22T11:26:03.851Z,0.73
2017-09-22T11:28:30.516Z,1.05
2017-09-22T11:30:56.873Z,0.75
2017-09-22T11:33:23.154Z,1.00
2017-09-22T11:35:49.394Z,1.20
2017-09-22T11:38:15.733Z,0.80
2017-09-22T11:40:42.175Z,1.10
2017-09-22T11:43:08.488Z,0.90
2017-09-22T11:45:34.919Z,1.37
2017-09-22T11:48:01.085Z,1.27
2017-09-22T11:50:28.172Z,1.05
2017-09-22T11:52:54.456Z,1.15
2017-09-22T11:55:20.750Z,1.10
2017-09-22T11:57:47.004Z,1.08
2017-09-22T12:00:13.337Z,1.05
2017-09-22T12:02:39.758Z,1.15
2017-09-22T12:05:05.902Z,1.00
2017-09-22T12:07:32.140Z,1.50
2017-09-22T12:09:58.471Z,0.80
2017-09-22T12:12:24.900Z,0.80
2017-09-22T12:14:51.309Z,1.10
2017-09-22T12:17:17.558Z,1.15
2017-09-22T12:19:43.981Z,0.93
2017-09-22T12:22:10.205Z,1.30
2017-09-22T12:24:36.451Z,1.00
2017-09-22T12:27:02.770Z,1.20
2017-09-22T12:29:28.992Z,1.23
2017-09-22T12:31:55.664Z,0.77
2017-09-22T12:34:22.184Z,1.00
2017-09-22T12:36:48.424Z,1.00
2017-09-22T12:39:14.841Z,1.08
2017-09-22T12:41:41.466Z,0.80
2017-09-22T12:44:08.817Z,0.98
2017-09-22T12:46:35.167Z,1.08
2017-09-22T12:49:01.469Z,1.33
2017-09-22T12:51:27.778Z,0.93
2017-09-22T12:53:54.805Z,1.08
2017-09-22T12:56:21.114Z,1.15
2017-09-22T12:58:47.326Z,1.42
2017-09-22T13:01:13.669Z,1.10
2017-09-22T13:03:39.926Z,1.50
2017-09-22T13:06:06.286Z,1.23
2017-09-22T13:08:32.748Z,1.10
2017-09-22T13:10:59.212Z,1.02
2017-09-22T13:13:25.592Z,1.48
2017-09-22T13:15:52.050Z,1.17
2017-09-22T13:18:18.268Z,1.10
2017-09-22T13:20:45.063Z,1.83
2017-09-22T13:23:11.427Z,1.23
2017-09-22T13:25:37.729Z,1.20
2017-09-22T13:28:03.922Z,1.45
2017-09-22T13:30:30.080Z,1.20
2017-09-22T13:32:56.371Z,1.33
2017-09-22T13:35:22.680Z,1.15
2017-09-22T13:37:49.023Z,0.90
2017-09-22T13:40:15.364Z,1.25
2017-09-22T13:42:41.534Z,1.10
2017-09-22T13:45:07.928Z,1.20
2017-09-22T13:47:34.238Z,1.30
2017-09-22T13:50:01.036Z,1.10
2017-09-22T13:52:27.721Z,1.02
2017-09-22T13:54:54.016Z,1.90
2017-09-22T13:57:20.310Z,1.00
2017-09-22T13:59:46.511Z,1.10
2017-09-22T14:02:13.003Z,0.75
2017-09-22T14:04:39.197Z,1.12
2017-09-22T14:07:05.433Z,0.98
2017-09-22T14:09:31.643Z,1.20
2017-09-22T14:11:57.897Z,0.98
2017-09-22T14:14:24.090Z,1.10
2017-09-22T14:16:50.389Z,0.90
2017-09-22T14:19:16.701Z,1.10
2017-09-22T14:21:43.001Z,1.12
2017-09-22T14:24:09.300Z,1.60
2017-09-22T14:26:35.531Z,1.20
2017-09-22T14:29:01.846Z,1.05
2017-09-22T14:31:28.393Z,1.17
2017-09-22T14:33:54.727Z,1.30
2017-09-22T14:36:21.046Z,1.55
2017-09-22T14:38:47.383Z,1.25
2017-09-22T14:41:13.608Z,1.10
2017-09-22T14:43:40.571Z,1.60
2017-09-22T14:46:06.848Z,1.30
2017-09-22T14:48:33.074Z,1.50
2017-09-22T14:50:59.779Z,1.60
2017-09-22T14:53:26.404Z,1.50
2017-09-22T14:55:52.676Z,1.40
2017-09-22T14:58:19.251Z,1.12
2017-09-22T15:00:45.923Z,0.98
2017-09-22T15:03:12.421Z,0.80
2017-09-22T15:05:38.745Z,1.55
2017-09-22T15:08:05.428Z,1.08
2017-09-22T15:10:31.748Z,1.05
2017-09-22T15:12:58.731Z,1.58
2017-09-22T15:15:25.248Z,0.95
2017-09-22T15:17:51.549Z,1.27
2017-09-22T15:20:17.790Z,1.50
2017-09-22T15:22:44.317Z,1.15
2017-09-22T15:25:11.463Z,1.62
2017-09-22T15:27:38.036Z,1.17
2017-09-22T15:30:04.372Z,1.45
2017-09-22T15:32:31.222Z,1.12
2017-09-22T15:34:57.495Z,1.85
2017-09-22T15:37:25.225Z,2.10
2017-09-22T15:39:51.700Z,1.42
2017-09-22T15:42:17.983Z,2.22
2017-09-22T15:44:44.581Z,1.83
2017-09-22T15:47:11.066Z,1.70
2017-09-22T15:49:37.665Z,1.15
2017-09-22T15:52:04.335Z,2.55
2017-09-22T15:54:30.712Z,1.60
2017-09-22T15:56:56.943Z,1.40
2017-09-22T15:59:23.167Z,2.08
2017-09-22T16:01:49.508Z,2.00
2017-09-22T16:04:16.449Z,1.30
2017-09-22T16:06:42.880Z,1.67
2017-09-22T16:09:09.872Z,2.00
2017-09-22T16:11:36.407Z,1.85
2017-09-22T16:14:02.802Z,1.55
2017-09-22T16:16:29.262Z,2.40
2017-09-22T16:18:55.672Z,1.80
2017-09-22T16:21:30.682Z,1.83
2017-09-22T16:23:56.984Z,1.80
2017-09-22T16:26:23.371Z,1.85
2017-09-22T16:28:49.644Z,2.67
2017-09-22T16:31:16.188Z,1.60
2017-09-22T16:33:42.487Z,2.60
2017-09-22T16:36:08.827Z,1.65
2017-09-22T16:38:35.174Z,2.33
2017-09-22T16:41:01.621Z,2.10
2017-09-22T16:43:31.646Z,2.42
2017-09-22T16:45:57.928Z,1.75
2017-09-22T16:48:24.291Z,1.60
2017-09-22T16:50:50.871Z,2.90
2017-09-22T16:53:17.178Z,1.60
2017-09-22T16:55:43.713Z,1.65
2017-09-22T16:58:10.027Z,1.70
2017-09-22T17:00:36.460Z,1.98
2017-09-22T17:03:03.085Z,1.95
2017-09-22T17:05:29.736Z,2.40
2017-09-22T17:07:56.178Z,1.60
2017-09-22T17:10:22.502Z,2.20
2017-09-22T17:12:49.284Z,2.95
2017-09-22T17:15:15.572Z,1.73
2017-09-22T17:17:41.914Z,1.87
2017-09-22T17:20:08.556Z,1.73
2017-09-22T17:22:34.797Z,1.60
2017-09-22T17:25:01.034Z,2.35
2017-09-22T17:27:27.445Z,1.90
2017-09-22T17:29:53.639Z,2.47
2017-09-22T17:32:19.825Z,1.77
2017-09-22T17:34:46.448Z,1.83
2017-09-22T17:37:12.880Z,1.40
2017-09-22T17:39:39.435Z,1.60
2017-09-22T17:42:05.736Z,1.70
2017-09-22T17:44:32.394Z,1.80
2017-09-22T17:46:58.957Z,1.73
2017-09-22T17:49:25.579Z,2.10
2017-09-22T17:51:51.890Z,1.35
2017-09-22T17:54:18.315Z,1.92
2017-09-22T17:56:44.652Z,1.83
2017-09-22T17:59:10.977Z,1.75
2017-09-22T18:01:37.633Z,1.62
2017-09-22T18:04:03.847Z,2.30
2017-09-22T18:06:30.051Z,2.67
2017-09-22T18:08:56.450Z,2.08
2017-09-22T18:11:22.769Z,2.30
2017-09-22T18:13:49.087Z,2.37
2017-09-22T18:16:15.431Z,2.62
2017-09-22T18:18:41.919Z,1.87
2017-09-22T18:21:08.202Z,2.40
2017-09-22T18:23:34.625Z,2.60
2017-09-22T18:26:01.051Z,2.25
2017-09-22T18:28:27.493Z,2.72
2017-09-22T18:30:53.913Z,1.35
2017-09-22T18:33:20.441Z,2.67
2017-09-22T18:35:46.804Z,3.17
2017-09-22T18:38:13.123Z,1.90
2017-09-22T18:40:39.452Z,2.55
2017-09-22T18:43:05.689Z,1.58
2017-09-22T18:45:32.007Z,2.22
2017-09-22T18:47:59.027Z,1.67
2017-09-22T18:50:25.389Z,2.30
2017-09-22T18:52:51.753Z,2.72
2017-09-22T18:55:18.062Z,1.85
2017-09-22T18:57:44.713Z,1.62
2017-09-22T19:00:11.039Z,1.85
2017-09-22T19:02:37.375Z,2.12
2017-09-22T19:05:04.221Z,1.90
2017-09-22T19:07:30.554Z,2.12
2017-09-22T19:09:56.765Z,2.30
2017-09-22T19:12:22.994Z,2.62
2017-09-22T19:14:49.343Z,1.62
2017-09-22T19:17:15.892Z,2.40
2017-09-22T19:19:42.294Z,2.30
2017-09-22T19:22:08.760Z,2.40
2017-09-22T19:24:35.169Z,2.30
2017-09-22T19:27:01.614Z,2.25
2017-09-22T19:29:27.987Z,2.35
2017-09-22T19:31:54.270Z,2.30
2017-09-22T19:34:20.804Z,1.87
2017-09-22T19:36:47.142Z,1.87
2017-09-22T19:39:13.469Z,1.95
2017-09-22T19:41:39.933Z,1.98
2017-09-22T19:44:06.228Z,1.90
2017-09-22T19:46:32.565Z,2.58
2017-09-22T19:48:59.013Z,2.33
2017-09-22T19:51:25.439Z,1.55
2017-09-22T19:53:51.884Z,2.35
2017-09-22T19:56:18.093Z,2.45
2017-09-22T19:58:44.545Z,2.30
2017-09-22T20:01:10.870Z,1.90
2017-09-22T20:03:37.097Z,2.40
2017-09-22T20:06:04.047Z,2.00
2017-09-22T20:08:30.589Z,2.25
2017-09-22T20:10:56.835Z,2.35
2017-09-22T20:13:23.256Z,2.25
2017-09-22T20:15:49.684Z,2.25
2017-09-22T20:18:16.024Z,1.67
2017-09-22T20:20:42.362Z,3.45
2017-09-22T20:23:08.891Z,3.40
2017-09-22T20:25:35.521Z,2.40
2017-09-22T20:28:01.876Z,1.73
2017-09-22T20:30:28.707Z,2.80
2017-09-22T20:32:55.351Z,1.90
2017-09-22T20:35:21.780Z,2.55
2017-09-22T20:37:48.216Z,2.20
2017-09-22T20:40:14.472Z,2.67
2017-09-22T20:42:41.062Z,2.50
2017-09-22T20:45:07.282Z,2.20
2017-09-22T20:47:33.652Z,2.30
2017-09-22T20:49:59.809Z,2.65
2017-09-22T20:52:26.035Z,2.25
2017-09-22T20:54:52.333Z,2.03
2017-09-22T20:57:18.745Z,2.28
2017-09-22T20:59:45.205Z,2.53
2017-09-22T21:02:11.411Z,2.00
2017-09-22T21:04:37.756Z,2.42
2017-09-22T21:07:04.081Z,2.42
2017-09-22T21:09:30.328Z,2.45
2017-09-22T21:11:56.869Z,2.35
2017-09-22T21:14:23.197Z,2.50
2017-09-22T21:16:49.524Z,2.20
2017-09-22T21:19:15.956Z,2.35
2017-09-22T21:21:42.288Z,2.03
2017-09-22T21:24:08.819Z,2.53
2017-09-22T21:26:35.044Z,2.33
2017-09-22T21:29:01.387Z,2.08
2017-09-22T21:31:28.757Z,1.60
2017-09-22T21:33:55.179Z,2.70
2017-09-22T21:36:21.514Z,1.92
2017-09-22T21:38:47.945Z,2.28
2017-09-22T21:41:14.149Z,2.00
2017-09-22T21:43:40.406Z,2.08
2017-09-22T21:46:07.137Z,1.85
2017-09-22T21:48:33.386Z,2.12
2017-09-22T21:50:59.709Z,2.90
2017-09-22T21:53:26.246Z,1.85
2017-09-22T21:55:52.681Z,2.72
2017-09-22T21:58:19.217Z,2.20
2017-09-22T22:00:45.643Z,2.05
2017-09-22T22:03:11.971Z,1.60
2017-09-22T22:05:38.222Z,2.70
2017-09-22T22:08:04.546Z,2.30
2017-09-22T22:10:30.983Z,2.28
2017-09-22T22:12:57.940Z,2.55
2017-09-22T22:15:24.251Z,2.50
2017-09-22T22:17:50.694Z,2.05
2017-09-22T22:20:17.031Z,2.10
2017-09-22T22:22:43.469Z,2.70
2017-09-22T22:25:09.785Z,2.40
2017-09-22T22:27:36.220Z,2.17
2017-09-22T22:30:02.440Z,2.10
2017-09-22T22:32:29.206Z,2.35
2017-09-22T22:34:55.739Z,2.45
2017-09-22T22:37:21.948Z,2.40
2017-09-22T22:39:48.304Z,1.67
2017-09-22T22:42:14.736Z,2.65
2017-09-22T22:44:41.174Z,2.10
2017-09-22T22:47:07.500Z,1.62
2017-09-22T22:49:33.923Z,2.35
2017-09-22T22:52:00.152Z,1.80
2017-09-22T22:54:26.492Z,1.62
2017-09-22T22:56:52.731Z,1.92
2017-09-22T22:59:19.587Z,1.92
2017-09-22T23:01:46.004Z,1.87
2017-09-22T23:04:13.273Z,1.85
2017-09-22T23:06:39.582Z,1.95
2017-09-22T23:09:05.908Z,1.40
2017-09-22T23:11:32.260Z,2.40
2017-09-22T23:13:58.793Z,1.65
2017-09-22T23:16:25.226Z,2.45
2017-09-22T23:18:51.554Z,2.30
2017-09-22T23:21:17.872Z,2.53
2017-09-22T23:23:44.548Z,2.22
2017-09-22T23:26:10.955Z,2.65
2017-09-22T23:28:37.585Z,2.80
2017-09-22T23:31:04.332Z,2.20
2017-09-22T23:33:30.587Z,2.35
2017-09-22T23:35:57.000Z,1.92
2017-09-22T23:38:23.242Z,1.70
2017-09-22T23:40:49.570Z,2.20
2017-09-22T23:43:16.108Z,1.80
2017-09-22T23:45:42.447Z,2.12
2017-09-22T23:48:08.766Z,1.95
2017-09-22T23:50:35.100Z,2.75
2017-09-22T23:53:01.644Z,1.75
2017-09-22T23:55:27.984Z,1.80
2017-09-22T23:57:54.530Z,2.00
